LFMN/NCE METAR and TAF weather

Enter ICAO airport designator
Station Type Date Time Source
LFMN METAR 2022/01/29 00:30 UTC NOAA

LFMN 290030Z 34010KT CAVOK 08/01 Q1028 NOSIG


Station Type Date Time Source
LFMN Decoded METAR 2022/01/29 00:30 UTC NOAA

Nice, France (LFMN) 43-39N 007-12E 10M
Jan 28, 2022 - 07:30 PM EST / 2022.01.29 0030 UTC
Wind: from the NNW (340 degrees) at 12 MPH (10 KT):0
Visibility: greater than 7 mile(s):0
Temperature: 46 F (8 C)
Dew Point: 33 F (1 C)
Relative Humidity: 61%
Pressure (altimeter): 30.36 in. Hg (1028 hPa)
ob: LFMN 290030Z 34010KT CAVOK 08/01 Q1028 NOSIG
cycle: 0

Station Type Date Time Source
LFMN TAF 2022/01/28 21:24 UTC NOAA

TAF LFMN 282000Z 2821/3003 33010KT CAVOK
BECMG 2910/2912 21008KT
BECMG 2917/2919 33010KT

Example: see airport list